createdAt,value
2017-07-26T00:00:17.031Z,0
2017-07-26T00:00:57.484Z,0
2017-07-26T00:01:37.939Z,0
2017-07-26T00:02:18.388Z,0
2017-07-26T00:02:58.838Z,0
2017-07-26T00:03:39.321Z,0
2017-07-26T00:04:19.745Z,0
2017-07-26T00:05:00.207Z,0
2017-07-26T00:05:40.661Z,0
2017-07-26T00:06:21.109Z,0
2017-07-26T00:07:01.566Z,0
2017-07-26T00:07:42.822Z,0
2017-07-26T00:08:23.271Z,0
2017-07-26T00:09:03.727Z,0
2017-07-26T00:09:44.179Z,0
2017-07-26T00:10:24.635Z,0
2017-07-26T00:11:05.089Z,0
2017-07-26T00:11:45.545Z,0
2017-07-26T00:12:25.992Z,0
2017-07-26T00:13:06.441Z,0
2017-07-26T00:13:46.895Z,0
2017-07-26T00:14:27.356Z,0
2017-07-26T00:15:07.810Z,0
2017-07-26T00:15:48.262Z,0
2017-07-26T00:16:28.718Z,0
2017-07-26T00:17:09.174Z,0
2017-07-26T00:17:49.618Z,0
2017-07-26T00:18:30.066Z,0
2017-07-26T00:19:10.551Z,0
2017-07-26T00:19:50.988Z,0
2017-07-26T00:20:31.442Z,0
2017-07-26T00:21:11.897Z,0
2017-07-26T00:21:52.351Z,0
2017-07-26T00:22:32.810Z,0
2017-07-26T00:23:13.258Z,0
2017-07-26T00:23:53.709Z,0
2017-07-26T00:24:34.167Z,0
2017-07-26T00:25:14.614Z,0
2017-07-26T00:25:55.064Z,0
2017-07-26T00:26:35.521Z,0
2017-07-26T00:27:15.980Z,0
2017-07-26T00:27:56.487Z,0
2017-07-26T00:28:36.942Z,0
2017-07-26T00:29:17.378Z,0
2017-07-26T00:29:57.828Z,0
2017-07-26T00:30:38.282Z,0
2017-07-26T00:31:18.736Z,0
2017-07-26T00:31:59.188Z,0
2017-07-26T00:32:39.642Z,0
2017-07-26T00:33:20.094Z,0
2017-07-26T00:34:00.545Z,0
2017-07-26T00:34:40.995Z,0
2017-07-26T00:35:21.457Z,0
2017-07-26T00:36:01.920Z,0
2017-07-26T00:36:42.376Z,0
2017-07-26T00:37:22.824Z,0
2017-07-26T00:38:03.278Z,0
2017-07-26T00:38:43.734Z,0
2017-07-26T00:39:24.188Z,0
2017-07-26T00:40:04.645Z,0
2017-07-26T00:40:45.096Z,0
2017-07-26T00:41:25.549Z,0
2017-07-26T00:42:06.004Z,0
2017-07-26T00:42:46.455Z,0
2017-07-26T00:43:26.912Z,0
2017-07-26T00:44:07.369Z,0
2017-07-26T00:44:47.821Z,0
2017-07-26T00:45:28.291Z,0
2017-07-26T00:46:08.745Z,0
2017-07-26T00:46:49.198Z,0
2017-07-26T00:47:29.664Z,0
2017-07-26T00:48:10.129Z,0
2017-07-26T00:48:50.572Z,0
2017-07-26T00:49:31.025Z,0
2017-07-26T00:50:11.481Z,0
2017-07-26T00:50:51.935Z,0
2017-07-26T00:51:32.403Z,0
2017-07-26T00:52:12.858Z,0
2017-07-26T00:52:53.313Z,0
2017-07-26T00:53:33.768Z,0
2017-07-26T00:54:14.224Z,0
2017-07-26T00:54:54.678Z,0
2017-07-26T00:55:35.137Z,0
2017-07-26T00:56:15.585Z,0
2017-07-26T00:56:56.032Z,0
2017-07-26T00:57:36.490Z,0
2017-07-26T00:58:16.944Z,0
2017-07-26T00:58:57.399Z,0
2017-07-26T00:59:37.854Z,0
2017-07-26T01:00:18.305Z,0
2017-07-26T01:00:58.762Z,0
2017-07-26T01:01:39.205Z,0
2017-07-26T01:02:19.648Z,0
2017-07-26T01:03:00.114Z,0
2017-07-26T01:03:40.548Z,0
2017-07-26T01:04:21.000Z,0
2017-07-26T01:05:01.449Z,0
2017-07-26T01:05:41.889Z,0
2017-07-26T01:06:22.345Z,0
2017-07-26T01:07:02.799Z,0
2017-07-26T01:07:43.244Z,0
2017-07-26T01:08:23.697Z,0
2017-07-26T01:09:04.141Z,0
2017-07-26T01:09:44.597Z,0
2017-07-26T01:10:25.050Z,0
2017-07-26T01:11:05.504Z,0
2017-07-26T01:11:45.959Z,0
2017-07-26T01:12:26.414Z,0
2017-07-26T01:13:06.869Z,0
2017-07-26T01:13:47.343Z,0
2017-07-26T01:14:27.777Z,0
2017-07-26T01:15:08.231Z,0
2017-07-26T01:15:48.679Z,0
2017-07-26T01:16:29.133Z,0
2017-07-26T01:17:09.601Z,0
2017-07-26T01:17:50.057Z,0
2017-07-26T01:18:30.507Z,0
2017-07-26T01:19:10.955Z,0
2017-07-26T01:19:51.404Z,0
2017-07-26T01:20:31.919Z,0
2017-07-26T01:21:12.373Z,0
2017-07-26T01:21:52.832Z,0
2017-07-26T01:22:33.298Z,0
2017-07-26T01:23:13.761Z,0
2017-07-26T01:23:54.202Z,0
2017-07-26T01:24:34.671Z,0
2017-07-26T01:25:15.120Z,0
2017-07-26T01:25:55.576Z,0
2017-07-26T01:26:36.029Z,0
2017-07-26T01:27:16.485Z,0
2017-07-26T01:27:56.950Z,0
2017-07-26T01:28:37.400Z,0
2017-07-26T01:29:17.854Z,0
2017-07-26T01:29:58.314Z,0
2017-07-26T01:30:38.767Z,0
2017-07-26T01:31:19.227Z,0
2017-07-26T01:31:59.690Z,0
2017-07-26T01:32:40.152Z,0
2017-07-26T01:33:20.606Z,0
2017-07-26T01:34:01.049Z,0
2017-07-26T01:35:58.748Z,0
2017-07-26T01:36:39.198Z,0
2017-07-26T01:37:19.651Z,0
2017-07-26T01:38:00.114Z,0
2017-07-26T01:38:40.569Z,0
2017-07-26T01:39:21.025Z,0
2017-07-26T01:40:01.471Z,0
2017-07-26T01:40:41.919Z,0
2017-07-26T01:41:22.375Z,0
2017-07-26T01:42:02.826Z,0
2017-07-26T01:42:43.277Z,0
2017-07-26T01:43:23.733Z,0
2017-07-26T01:44:04.193Z,0
2017-07-26T01:44:44.644Z,0
2017-07-26T01:45:25.082Z,0
2017-07-26T01:46:05.533Z,0
2017-07-26T01:46:45.985Z,0
2017-07-26T01:47:26.439Z,0
2017-07-26T01:48:06.887Z,0
2017-07-26T01:48:47.343Z,0
2017-07-26T01:49:27.803Z,0
2017-07-26T01:50:08.259Z,0
2017-07-26T01:50:48.714Z,0
2017-07-26T01:51:29.169Z,0
2017-07-26T01:52:09.631Z,0
2017-07-26T01:52:50.084Z,0
2017-07-26T01:53:30.546Z,0
2017-07-26T01:54:11.003Z,0
2017-07-26T01:54:51.455Z,0
2017-07-26T01:55:31.896Z,0
2017-07-26T01:56:12.350Z,0
2017-07-26T01:56:52.807Z,0
2017-07-26T01:57:33.262Z,0
2017-07-26T01:58:13.722Z,0
2017-07-26T01:58:54.169Z,0
2017-07-26T01:59:34.626Z,0
2017-07-26T02:00:15.084Z,0
2017-07-26T02:00:55.536Z,0
2017-07-26T02:01:36.002Z,0
2017-07-26T02:02:16.456Z,0
2017-07-26T02:02:56.909Z,0
2017-07-26T02:03:37.363Z,0
2017-07-26T02:04:17.818Z,0
2017-07-26T02:04:58.275Z,0
2017-07-26T02:05:38.731Z,0
2017-07-26T02:06:19.224Z,0
2017-07-26T02:06:59.680Z,0
2017-07-26T02:07:40.140Z,0
2017-07-26T02:08:20.596Z,0
2017-07-26T02:09:01.053Z,0
2017-07-26T02:09:41.504Z,0
2017-07-26T02:10:21.954Z,0
2017-07-26T02:11:02.406Z,0
2017-07-26T02:11:42.856Z,0
2017-07-26T02:12:23.308Z,0
2017-07-26T02:13:03.762Z,0
2017-07-26T02:13:44.222Z,0
2017-07-26T02:14:24.680Z,0
2017-07-26T02:15:05.130Z,0
2017-07-26T02:15:45.592Z,0
2017-07-26T02:16:26.044Z,0
2017-07-26T02:17:06.517Z,0
2017-07-26T02:17:46.971Z,0
2017-07-26T02:18:27.426Z,0
2017-07-26T02:19:07.895Z,0
2017-07-26T02:19:48.333Z,0
2017-07-26T02:20:28.781Z,0
2017-07-26T02:21:09.238Z,0
2017-07-26T02:21:49.688Z,0
2017-07-26T02:22:30.143Z,0
2017-07-26T02:23:10.596Z,0
2017-07-26T02:23:51.052Z,0
2017-07-26T02:24:31.509Z,0
2017-07-26T02:25:12.000Z,0
2017-07-26T02:25:52.457Z,0
2017-07-26T02:26:32.915Z,0
2017-07-26T02:27:13.370Z,0
2017-07-26T02:27:53.820Z,0
2017-07-26T02:28:34.280Z,0
2017-07-26T02:29:14.723Z,0
2017-07-26T02:29:55.178Z,0
2017-07-26T02:30:35.632Z,0
2017-07-26T02:31:16.089Z,0
2017-07-26T02:31:56.570Z,0
2017-07-26T02:32:36.995Z,0
2017-07-26T02:33:17.450Z,0
2017-07-26T02:33:57.918Z,0
2017-07-26T02:34:38.369Z,0
2017-07-26T02:35:18.825Z,0
2017-07-26T02:35:59.281Z,0
2017-07-26T02:36:39.739Z,0
2017-07-26T02:37:20.193Z,0
2017-07-26T02:38:00.654Z,0
2017-07-26T02:38:41.110Z,0
2017-07-26T02:39:21.565Z,0
2017-07-26T02:40:02.020Z,0
2017-07-26T02:40:42.478Z,0
2017-07-26T02:41:22.925Z,0
2017-07-26T02:42:03.379Z,0
2017-07-26T02:42:43.835Z,0
2017-07-26T02:43:24.274Z,0
2017-07-26T02:44:04.729Z,0
2017-07-26T02:44:45.189Z,0
2017-07-26T02:45:25.641Z,0
2017-07-26T02:46:06.094Z,0
2017-07-26T02:46:46.547Z,0
2017-07-26T02:47:27.007Z,0
2017-07-26T02:48:07.469Z,0
2017-07-26T02:48:47.920Z,0
2017-07-26T02:49:28.377Z,0
2017-07-26T02:50:08.828Z,0
2017-07-26T02:50:49.278Z,0
2017-07-26T02:51:29.735Z,0
2017-07-26T02:52:10.188Z,0
2017-07-26T02:52:50.645Z,0
2017-07-26T02:53:31.101Z,0
2017-07-26T02:54:11.557Z,0
2017-07-26T02:54:52.014Z,0
2017-07-26T02:55:32.462Z,0
2017-07-26T02:56:12.922Z,0
2017-07-26T02:56:53.374Z,0
2017-07-26T02:57:33.834Z,0
2017-07-26T02:58:14.292Z,0
2017-07-26T02:58:54.744Z,0
2017-07-26T02:59:35.206Z,0
2017-07-26T03:00:15.659Z,0
2017-07-26T03:00:56.113Z,0
2017-07-26T03:01:36.574Z,0
2017-07-26T03:02:17.019Z,0
2017-07-26T03:02:57.473Z,0
2017-07-26T03:03:37.929Z,0
2017-07-26T03:04:18.388Z,0
2017-07-26T03:04:58.849Z,0
2017-07-26T03:05:39.300Z,0
2017-07-26T03:06:19.746Z,0
2017-07-26T03:07:00.204Z,0
2017-07-26T03:07:40.661Z,0
2017-07-26T03:08:21.114Z,0
2017-07-26T03:09:01.572Z,0
2017-07-26T03:09:42.031Z,0
2017-07-26T03:10:22.483Z,0
2017-07-26T03:11:02.935Z,0
2017-07-26T03:11:43.389Z,0
2017-07-26T03:12:23.835Z,0
2017-07-26T03:13:04.290Z,0
2017-07-26T03:13:44.746Z,0
2017-07-26T03:14:25.204Z,0
2017-07-26T03:15:05.659Z,0
2017-07-26T03:15:46.115Z,0
2017-07-26T03:16:26.568Z,0
2017-07-26T03:17:07.175Z,0
2017-07-26T03:17:47.629Z,0
2017-07-26T03:18:28.071Z,0
2017-07-26T03:19:08.519Z,0
2017-07-26T03:19:48.965Z,0
2017-07-26T03:20:29.420Z,0
2017-07-26T03:21:09.870Z,0
2017-07-26T03:21:50.326Z,0
2017-07-26T03:22:30.785Z,0
2017-07-26T03:23:11.239Z,0
2017-07-26T03:23:51.696Z,0
2017-07-26T03:24:32.144Z,0
2017-07-26T03:25:12.595Z,0
2017-07-26T03:25:53.050Z,0
2017-07-26T03:26:33.501Z,0
2017-07-26T03:27:13.962Z,0
2017-07-26T03:27:54.412Z,0
2017-07-26T03:28:34.882Z,0
2017-07-26T03:29:15.334Z,0
2017-07-26T03:29:55.795Z,0
2017-07-26T03:30:36.245Z,0
2017-07-26T03:31:16.702Z,0
2017-07-26T03:31:57.160Z,0
2017-07-26T03:32:37.613Z,0
2017-07-26T03:33:18.068Z,0
2017-07-26T03:33:58.520Z,0
2017-07-26T03:34:38.971Z,0
2017-07-26T03:35:19.430Z,0
2017-07-26T03:35:59.899Z,8
2017-07-26T03:36:40.331Z,8
2017-07-26T03:37:20.793Z,8
2017-07-26T03:38:01.244Z,8
2017-07-26T03:38:41.703Z,8
2017-07-26T03:39:22.160Z,8
2017-07-26T03:40:02.609Z,8
2017-07-26T03:40:43.077Z,8
2017-07-26T03:41:23.512Z,8
2017-07-26T03:42:03.971Z,8
2017-07-26T03:42:45.834Z,8
2017-07-26T03:43:26.290Z,8
2017-07-26T03:44:06.735Z,8
2017-07-26T03:44:47.185Z,8
2017-07-26T03:45:27.640Z,8
2017-07-26T03:46:08.081Z,8
2017-07-26T03:46:48.529Z,4
2017-07-26T03:47:28.977Z,8
2017-07-26T03:48:09.436Z,8
2017-07-26T03:48:49.888Z,8
2017-07-26T03:49:30.347Z,8
2017-07-26T03:50:10.805Z,8
2017-07-26T03:50:51.250Z,8
2017-07-26T03:51:31.701Z,8
2017-07-26T03:52:12.152Z,8
2017-07-26T03:52:52.602Z,8
2017-07-26T03:53:33.052Z,8
2017-07-26T03:54:13.502Z,4
2017-07-26T03:54:53.961Z,8
2017-07-26T03:55:34.414Z,8
2017-07-26T03:56:14.867Z,8
2017-07-26T03:56:55.319Z,8
2017-07-26T03:57:35.769Z,8
2017-07-26T03:58:16.230Z,8
2017-07-26T03:58:56.782Z,8
2017-07-26T03:59:37.138Z,8
2017-07-26T04:00:17.587Z,8
2017-07-26T04:00:58.043Z,8
2017-07-26T04:01:38.488Z,8
2017-07-26T04:02:18.952Z,8
2017-07-26T04:02:59.407Z,8
2017-07-26T04:03:39.861Z,8
2017-07-26T04:04:20.317Z,8
2017-07-26T04:05:00.770Z,8
2017-07-26T04:05:41.231Z,12
2017-07-26T04:06:21.679Z,8
2017-07-26T04:07:02.139Z,12
2017-07-26T04:07:42.590Z,12
2017-07-26T04:08:23.040Z,12
2017-07-26T04:09:03.495Z,12
2017-07-26T04:09:43.953Z,12
2017-07-26T04:10:24.418Z,12
2017-07-26T04:11:04.870Z,12
2017-07-26T04:11:45.330Z,12
2017-07-26T04:12:25.787Z,8
2017-07-26T04:13:06.239Z,12
2017-07-26T04:13:47.992Z,12
2017-07-26T04:14:28.449Z,12
2017-07-26T04:15:08.919Z,12
2017-07-26T04:15:49.361Z,16
2017-07-26T04:16:29.811Z,12
2017-07-26T04:17:10.266Z,12
2017-07-26T04:17:50.728Z,12
2017-07-26T04:18:31.183Z,16
2017-07-26T04:19:11.662Z,16
2017-07-26T04:19:52.208Z,16
2017-07-26T04:20:32.768Z,16
2017-07-26T04:21:13.189Z,12
2017-07-26T04:23:26.064Z,16
2017-07-26T04:24:06.525Z,16
2017-07-26T04:24:46.961Z,20
2017-07-26T04:25:27.415Z,16
2017-07-26T04:26:07.868Z,20
2017-07-26T04:26:48.324Z,20
2017-07-26T04:27:28.770Z,20
2017-07-26T04:28:09.227Z,20
2017-07-26T04:28:49.681Z,20
2017-07-26T04:29:30.129Z,24
2017-07-26T04:30:10.585Z,20
2017-07-26T04:30:51.065Z,20
2017-07-26T04:31:31.534Z,20
2017-07-26T04:32:11.977Z,20
2017-07-26T04:32:52.434Z,20
2017-07-26T04:33:32.889Z,20
2017-07-26T04:34:13.345Z,20
2017-07-26T04:34:53.802Z,16
2017-07-26T04:35:34.236Z,20
2017-07-26T04:36:14.690Z,20
2017-07-26T04:36:55.145Z,20
2017-07-26T04:37:35.595Z,28
2017-07-26T04:38:16.047Z,28
2017-07-26T04:38:56.500Z,28
2017-07-26T04:39:36.957Z,32
2017-07-26T04:40:17.415Z,32
2017-07-26T04:40:57.864Z,32
2017-07-26T04:41:38.323Z,36
2017-07-26T04:42:18.779Z,36
2017-07-26T04:42:59.259Z,36
2017-07-26T04:43:39.717Z,36
2017-07-26T04:44:20.181Z,36
2017-07-26T04:45:00.637Z,36
2017-07-26T04:45:41.112Z,36
2017-07-26T04:46:21.551Z,36
2017-07-26T04:47:01.986Z,32
2017-07-26T04:47:42.438Z,32
2017-07-26T04:48:22.890Z,28
2017-07-26T04:49:03.346Z,28
2017-07-26T04:49:43.797Z,24
2017-07-26T04:50:24.253Z,24
2017-07-26T04:51:04.704Z,24
2017-07-26T04:51:45.163Z,28
2017-07-26T04:52:25.608Z,28
2017-07-26T04:53:06.058Z,24
2017-07-26T04:53:46.515Z,24
2017-07-26T04:54:26.991Z,24
2017-07-26T04:55:07.437Z,20
2017-07-26T04:55:47.893Z,24
2017-07-26T04:56:28.347Z,28
2017-07-26T04:57:08.796Z,24
2017-07-26T04:57:49.260Z,28
2017-07-26T04:58:29.707Z,32
2017-07-26T04:59:10.160Z,28
2017-07-26T04:59:50.616Z,28
2017-07-26T05:00:31.067Z,28
2017-07-26T05:01:11.527Z,32
2017-07-26T05:01:51.984Z,28
2017-07-26T05:02:32.436Z,28
2017-07-26T05:03:12.896Z,32
2017-07-26T05:03:53.351Z,32
2017-07-26T05:04:33.791Z,32
2017-07-26T05:05:14.240Z,32
2017-07-26T05:05:54.744Z,32
2017-07-26T05:06:35.177Z,28
2017-07-26T05:07:15.624Z,32
2017-07-26T05:07:56.078Z,32
2017-07-26T05:08:36.536Z,32
2017-07-26T05:09:16.994Z,28
2017-07-26T05:09:57.444Z,32
2017-07-26T05:10:37.909Z,28
2017-07-26T05:11:18.363Z,28
2017-07-26T05:11:58.814Z,32
2017-07-26T05:12:39.258Z,32
2017-07-26T05:13:19.708Z,32
2017-07-26T05:14:00.145Z,36
2017-07-26T05:14:40.634Z,36
2017-07-26T05:15:21.074Z,32
2017-07-26T05:16:01.530Z,32
2017-07-26T05:16:41.987Z,32
2017-07-26T05:17:22.434Z,40
2017-07-26T05:18:02.908Z,40
2017-07-26T05:18:43.343Z,44
2017-07-26T05:19:23.796Z,44
2017-07-26T05:20:04.250Z,48
2017-07-26T05:20:44.703Z,48
2017-07-26T05:21:25.155Z,48
2017-07-26T05:22:05.609Z,52
2017-07-26T05:22:46.074Z,52
2017-07-26T05:23:26.546Z,52
2017-07-26T05:24:06.984Z,52
2017-07-26T05:24:47.440Z,52
2017-07-26T05:25:27.890Z,44
2017-07-26T05:26:08.346Z,40
2017-07-26T05:26:48.796Z,40
2017-07-26T05:27:29.247Z,40
2017-07-26T05:28:09.703Z,44
2017-07-26T05:28:50.158Z,44
2017-07-26T05:29:30.607Z,44
2017-07-26T05:30:11.057Z,44
2017-07-26T05:30:51.504Z,40
2017-07-26T05:31:31.958Z,36
2017-07-26T05:32:12.416Z,36
2017-07-26T05:32:52.869Z,36
2017-07-26T05:33:33.319Z,36
2017-07-26T05:34:13.771Z,40
2017-07-26T05:34:54.229Z,40
2017-07-26T05:35:34.678Z,44
2017-07-26T05:36:15.130Z,44
2017-07-26T05:36:55.589Z,40
2017-07-26T05:37:36.050Z,44
2017-07-26T05:38:16.509Z,44
2017-07-26T05:38:56.976Z,44
2017-07-26T05:39:37.402Z,48
2017-07-26T05:40:17.860Z,48
2017-07-26T05:40:58.311Z,48
2017-07-26T05:41:38.772Z,52
2017-07-26T05:42:19.229Z,52
2017-07-26T05:42:59.672Z,52
2017-07-26T05:43:40.143Z,52
2017-07-26T05:44:20.599Z,52
2017-07-26T05:45:01.059Z,48
2017-07-26T05:45:41.512Z,52
2017-07-26T05:46:21.971Z,52
2017-07-26T05:47:02.434Z,52
2017-07-26T05:47:42.890Z,56
2017-07-26T05:48:23.349Z,60
2017-07-26T05:49:03.811Z,60
2017-07-26T05:49:44.271Z,64
2017-07-26T05:50:24.725Z,68
2017-07-26T05:51:05.179Z,72
2017-07-26T05:51:45.632Z,72
2017-07-26T05:52:26.082Z,76
2017-07-26T05:53:07.353Z,80
2017-07-26T05:53:47.813Z,76
2017-07-26T05:54:28.260Z,76
2017-07-26T05:55:08.712Z,80
2017-07-26T05:55:49.162Z,80
2017-07-26T05:56:29.617Z,80
2017-07-26T05:57:10.072Z,84
2017-07-26T05:57:50.540Z,80
2017-07-26T05:58:30.989Z,84
2017-07-26T05:59:11.441Z,84
2017-07-26T05:59:51.894Z,80
2017-07-26T06:00:32.814Z,76
2017-07-26T06:01:13.267Z,72
2017-07-26T06:01:53.723Z,68
2017-07-26T06:02:34.179Z,64
2017-07-26T06:03:14.629Z,60
2017-07-26T06:03:55.085Z,56
2017-07-26T06:04:35.544Z,52
2017-07-26T06:05:16.000Z,52
2017-07-26T06:05:56.447Z,52
2017-07-26T06:06:36.924Z,48
2017-07-26T06:07:17.377Z,48
2017-07-26T06:07:57.918Z,52
2017-07-26T06:08:38.248Z,52
2017-07-26T06:09:18.706Z,56
2017-07-26T06:09:59.150Z,56
2017-07-26T06:10:39.625Z,56
2017-07-26T06:11:20.075Z,60
2017-07-26T06:12:00.531Z,60
2017-07-26T06:12:40.990Z,64
2017-07-26T06:13:21.429Z,60
2017-07-26T06:14:01.886Z,64
2017-07-26T06:14:42.342Z,64
2017-07-26T06:15:22.797Z,64
2017-07-26T06:16:03.245Z,64
2017-07-26T06:16:43.692Z,60
2017-07-26T06:17:24.142Z,60
2017-07-26T06:18:04.604Z,64
2017-07-26T06:18:45.064Z,68
2017-07-26T06:19:25.533Z,72
2017-07-26T06:20:05.967Z,76
2017-07-26T06:20:46.422Z,84
2017-07-26T06:21:26.881Z,88
2017-07-26T06:22:07.335Z,88
2017-07-26T06:22:47.792Z,92
2017-07-26T06:23:28.247Z,88
2017-07-26T06:24:08.698Z,92
2017-07-26T06:24:49.132Z,96
2017-07-26T06:25:29.581Z,104
2017-07-26T06:26:10.035Z,116
2017-07-26T06:26:50.524Z,116
2017-07-26T06:27:30.968Z,108
2017-07-26T06:28:11.424Z,112
2017-07-26T06:28:51.885Z,120
2017-07-26T06:29:32.375Z,132
2017-07-26T06:30:12.824Z,140
2017-07-26T06:30:53.281Z,136
2017-07-26T06:31:33.728Z,128
2017-07-26T06:32:14.188Z,128
2017-07-26T06:32:54.639Z,128
2017-07-26T06:33:35.096Z,136
2017-07-26T06:34:15.545Z,144
2017-07-26T06:34:56.001Z,156
2017-07-26T06:35:36.451Z,168
2017-07-26T06:36:16.905Z,172
2017-07-26T06:36:57.367Z,176
2017-07-26T06:37:37.829Z,176
2017-07-26T06:38:18.279Z,164
2017-07-26T06:38:58.727Z,164
2017-07-26T06:39:39.177Z,152
2017-07-26T06:40:19.629Z,148
2017-07-26T06:41:00.084Z,152
2017-07-26T06:41:40.589Z,160
2017-07-26T06:42:21.040Z,156
2017-07-26T06:43:01.501Z,152
2017-07-26T06:43:41.968Z,160
2017-07-26T06:44:22.404Z,164
2017-07-26T06:45:02.856Z,164
2017-07-26T06:45:43.318Z,172
2017-07-26T06:46:23.772Z,184
2017-07-26T06:47:04.218Z,196
2017-07-26T06:47:44.666Z,196
2017-07-26T06:48:25.148Z,188
2017-07-26T06:49:05.576Z,176
2017-07-26T06:49:46.036Z,164
2017-07-26T06:50:26.483Z,156
2017-07-26T06:51:06.931Z,144
2017-07-26T06:51:47.387Z,140
2017-07-26T06:52:27.841Z,136
2017-07-26T06:53:08.296Z,132
2017-07-26T06:53:48.748Z,132
2017-07-26T06:54:29.200Z,128
2017-07-26T06:55:09.651Z,128
2017-07-26T06:55:50.107Z,128
2017-07-26T06:56:30.565Z,128
2017-07-26T06:57:11.018Z,128
2017-07-26T06:57:51.480Z,132
2017-07-26T06:58:31.931Z,136
2017-07-26T06:59:12.381Z,132
2017-07-26T06:59:52.829Z,120
2017-07-26T07:00:33.293Z,112
2017-07-26T07:01:13.742Z,108
2017-07-26T07:01:54.194Z,108
2017-07-26T07:02:34.648Z,104
2017-07-26T07:03:15.117Z,100
2017-07-26T07:03:55.573Z,104
2017-07-26T07:04:36.026Z,104
2017-07-26T07:05:16.475Z,108
2017-07-26T07:05:57.026Z,112
2017-07-26T07:06:37.375Z,120
2017-07-26T07:07:17.837Z,128
2017-07-26T07:07:58.294Z,144
2017-07-26T07:08:38.755Z,156
2017-07-26T07:09:19.211Z,156
2017-07-26T07:09:59.669Z,152
2017-07-26T07:10:40.140Z,144
2017-07-26T07:11:20.600Z,136
2017-07-26T07:12:01.065Z,132
2017-07-26T07:12:41.521Z,128
2017-07-26T07:13:21.975Z,124
2017-07-26T07:14:02.430Z,124
2017-07-26T07:14:42.891Z,128
2017-07-26T07:15:23.346Z,136
2017-07-26T07:16:03.799Z,144
2017-07-26T07:16:44.256Z,152
2017-07-26T07:17:24.713Z,132
2017-07-26T07:18:05.166Z,104
2017-07-26T07:18:45.621Z,88
2017-07-26T07:19:26.075Z,84
2017-07-26T07:20:06.534Z,88
2017-07-26T07:20:46.980Z,92
2017-07-26T07:21:27.423Z,108
2017-07-26T07:22:07.877Z,124
2017-07-26T07:22:48.343Z,140
2017-07-26T07:23:28.797Z,140
2017-07-26T07:24:09.246Z,148
2017-07-26T07:24:49.703Z,144
2017-07-26T07:25:30.155Z,144
2017-07-26T07:26:10.618Z,132
2017-07-26T07:26:51.073Z,124
2017-07-26T07:27:31.532Z,120
2017-07-26T07:28:11.988Z,120
2017-07-26T07:28:52.443Z,116
2017-07-26T07:29:32.914Z,108
2017-07-26T07:30:13.353Z,92
2017-07-26T07:30:53.808Z,80
2017-07-26T07:31:34.270Z,76
2017-07-26T07:32:14.722Z,80
2017-07-26T07:32:55.169Z,96
2017-07-26T07:33:35.625Z,120
2017-07-26T07:34:16.082Z,148
2017-07-26T07:34:56.535Z,172
2017-07-26T07:35:36.994Z,180
2017-07-26T07:36:17.472Z,188
2017-07-26T07:36:57.930Z,172
2017-07-26T07:37:38.386Z,188
2017-07-26T07:38:18.842Z,180
2017-07-26T07:38:59.300Z,208
2017-07-26T07:39:39.759Z,224
2017-07-26T07:40:20.242Z,244
2017-07-26T07:41:00.688Z,220
2017-07-26T07:41:41.144Z,188
2017-07-26T07:42:21.659Z,164
2017-07-26T07:43:02.120Z,152
2017-07-26T07:43:42.567Z,144
2017-07-26T07:44:23.030Z,136
2017-07-26T07:45:03.573Z,136
2017-07-26T07:45:44.037Z,160
2017-07-26T07:46:24.482Z,172
2017-07-26T07:47:04.933Z,152
2017-07-26T07:47:45.389Z,124
2017-07-26T07:48:25.844Z,132
2017-07-26T07:49:06.303Z,156
2017-07-26T07:49:46.751Z,160
2017-07-26T07:50:27.269Z,148
2017-07-26T07:51:07.722Z,128
2017-07-26T07:51:48.181Z,112
2017-07-26T07:52:28.637Z,108
2017-07-26T07:53:09.106Z,116
2017-07-26T07:53:49.546Z,140
2017-07-26T07:54:30.000Z,128
2017-07-26T07:55:10.454Z,112
2017-07-26T07:55:50.914Z,96
2017-07-26T07:56:31.373Z,92
2017-07-26T07:57:11.835Z,104
2017-07-26T07:57:52.277Z,116
2017-07-26T07:58:32.736Z,132
2017-07-26T07:59:13.194Z,124
2017-07-26T07:59:53.650Z,148
2017-07-26T08:00:34.106Z,176
2017-07-26T08:01:14.551Z,184
2017-07-26T08:01:55.008Z,172
2017-07-26T08:02:35.460Z,172
2017-07-26T08:03:15.924Z,192
2017-07-26T08:03:56.378Z,208
2017-07-26T08:04:36.871Z,216
2017-07-26T08:05:17.385Z,224
2017-07-26T08:05:57.842Z,216
2017-07-26T08:06:38.286Z,200
2017-07-26T08:07:18.748Z,188
2017-07-26T08:07:59.208Z,152
2017-07-26T08:08:39.658Z,144
2017-07-26T08:09:20.112Z,152
2017-07-26T08:10:00.564Z,152
2017-07-26T08:10:41.028Z,132
2017-07-26T08:11:21.483Z,124
2017-07-26T08:12:01.936Z,128
2017-07-26T08:12:42.389Z,132
2017-07-26T08:13:22.904Z,136
2017-07-26T08:14:03.351Z,148
2017-07-26T08:14:43.816Z,152
2017-07-26T08:15:24.275Z,168
2017-07-26T08:16:04.729Z,168
2017-07-26T08:16:45.188Z,160
2017-07-26T08:17:25.641Z,148
2017-07-26T08:18:06.095Z,148
2017-07-26T08:18:46.555Z,156
2017-07-26T08:19:27.010Z,164
2017-07-26T08:20:07.468Z,172
2017-07-26T08:20:47.924Z,184
2017-07-26T08:21:28.384Z,184
2017-07-26T08:22:08.834Z,176
2017-07-26T08:22:49.282Z,164
2017-07-26T08:23:29.746Z,172
2017-07-26T08:24:10.204Z,160
2017-07-26T08:24:50.654Z,152
2017-07-26T08:25:31.102Z,176
2017-07-26T08:26:11.549Z,224
2017-07-26T08:26:52.001Z,284
2017-07-26T08:27:32.511Z,332
2017-07-26T08:28:12.964Z,388
2017-07-26T08:28:53.422Z,404
2017-07-26T08:29:33.881Z,392
2017-07-26T08:30:14.335Z,372
2017-07-26T08:30:54.790Z,348
2017-07-26T08:31:35.245Z,380
2017-07-26T08:32:15.711Z,408
2017-07-26T08:32:56.170Z,412
2017-07-26T08:33:36.624Z,412
2017-07-26T08:34:17.099Z,428
2017-07-26T08:34:57.520Z,440
2017-07-26T08:35:37.978Z,496
2017-07-26T08:36:18.437Z,528
2017-07-26T08:36:58.899Z,528
2017-07-26T08:37:39.349Z,532
2017-07-26T08:38:19.810Z,528
2017-07-26T08:39:00.261Z,492
2017-07-26T08:39:40.714Z,488
2017-07-26T08:40:21.172Z,480
2017-07-26T08:41:01.628Z,472
2017-07-26T08:41:42.090Z,496
2017-07-26T08:42:22.554Z,484
2017-07-26T08:43:03.003Z,460
2017-07-26T08:43:43.462Z,468
2017-07-26T08:44:23.921Z,468
2017-07-26T08:45:04.378Z,456
2017-07-26T08:45:44.838Z,456
2017-07-26T08:46:25.287Z,424
2017-07-26T08:47:05.746Z,392
2017-07-26T08:47:46.211Z,364
2017-07-26T08:48:26.652Z,332
2017-07-26T08:49:07.103Z,316
2017-07-26T08:49:47.562Z,324
2017-07-26T08:50:28.011Z,352
2017-07-26T08:51:08.461Z,392
2017-07-26T08:51:48.921Z,404
2017-07-26T08:52:29.369Z,436
2017-07-26T08:53:09.823Z,428
2017-07-26T08:53:50.282Z,384
2017-07-26T08:54:30.731Z,380
2017-07-26T08:55:11.188Z,368
2017-07-26T08:55:51.643Z,356
2017-07-26T08:56:32.099Z,356
2017-07-26T08:57:12.559Z,364
2017-07-26T08:57:53.016Z,372
2017-07-26T08:58:33.458Z,356
2017-07-26T08:59:13.911Z,320
2017-07-26T08:59:54.370Z,304
2017-07-26T09:00:34.819Z,292
2017-07-26T09:01:15.288Z,296
2017-07-26T09:01:55.724Z,308
2017-07-26T09:02:36.175Z,312
2017-07-26T09:03:16.624Z,312
2017-07-26T09:03:57.156Z,312
2017-07-26T09:04:37.517Z,296
2017-07-26T09:05:17.956Z,288
2017-07-26T09:05:58.411Z,316
2017-07-26T09:06:38.863Z,352
2017-07-26T09:07:19.312Z,380
2017-07-26T09:07:59.772Z,376
2017-07-26T09:08:40.216Z,400
2017-07-26T09:09:20.675Z,424
2017-07-26T09:10:01.132Z,436
2017-07-26T09:10:41.586Z,432
2017-07-26T09:11:22.045Z,412
2017-07-26T09:12:02.496Z,396
2017-07-26T09:12:42.951Z,396
2017-07-26T09:13:23.414Z,400
2017-07-26T09:14:03.866Z,408
2017-07-26T09:14:44.319Z,420
2017-07-26T09:15:24.776Z,416
2017-07-26T09:16:05.227Z,412
2017-07-26T09:16:45.685Z,396
2017-07-26T09:17:26.156Z,408
2017-07-26T09:18:06.616Z,396
2017-07-26T09:18:47.075Z,384
2017-07-26T09:19:27.530Z,364
2017-07-26T09:20:07.991Z,364
2017-07-26T09:20:48.450Z,372
2017-07-26T09:21:28.905Z,368
2017-07-26T09:22:09.367Z,344
2017-07-26T09:22:49.824Z,348
2017-07-26T09:23:30.287Z,360
2017-07-26T09:24:10.753Z,368
2017-07-26T09:24:51.215Z,392
2017-07-26T09:25:31.667Z,412
2017-07-26T09:26:12.116Z,416
2017-07-26T09:26:52.570Z,400
2017-07-26T09:27:33.029Z,376
2017-07-26T09:28:13.487Z,348
2017-07-26T09:28:53.942Z,320
2017-07-26T09:29:34.397Z,316
2017-07-26T09:30:14.856Z,308
2017-07-26T09:30:55.295Z,308
2017-07-26T09:31:35.756Z,284
2017-07-26T09:32:16.209Z,272
2017-07-26T09:32:56.665Z,272
2017-07-26T09:33:37.138Z,276
2017-07-26T09:34:17.603Z,284
2017-07-26T09:34:58.045Z,280
2017-07-26T09:35:38.500Z,264
2017-07-26T09:36:18.965Z,288
2017-07-26T09:36:59.406Z,296
2017-07-26T09:37:39.864Z,300
2017-07-26T09:38:20.319Z,292
2017-07-26T09:39:00.761Z,288
2017-07-26T09:39:41.215Z,300
2017-07-26T09:40:21.671Z,308
2017-07-26T09:41:02.128Z,320
2017-07-26T09:41:42.585Z,312